Aérodrome :
LOGIN :

S'inscrire | Disclaimer

   EN    FR    IT 

 










Légende :    VFR   VFR Marginal   IFR   IFR Intensif   IFR Très Intensif
Visi : 
Plafond : 
>= 8 km
>= 3000ft
5 à 8 km
1000 à 3000 ft
1500m à 5 km
500 à 1000 ft
800 à 1500m
200 à 500 ft
< 800m
< 200 ft
Symboles :   Orages  Brouillard  Fortes neiges  Fortes précipitations  Vent > 20 kt
SIGMETs :   Divers  Orages  Givrage  Turbulence  Onde Orograph.  Cendres Volcan.






- Altitude de l'aérodrome : 1247 ft
- Code IATA : PRG


LKPR - Praha Ruzyne

DERNIER METAR :
  • 231330Z 03005KT 360V090 CAVOK 07/M05 Q1015 NOSIG

METARs EXPIRÉS :
  • 231300Z 02005KT 340V080 CAVOK 07/M05 Q1015 NOSIG
  • 231230Z 07004KT 360V140 CAVOK 06/M05 Q1016 NOSIG
  • 231200Z 02006KT 330V060 CAVOK 06/M05 Q1016 NOSIG
  • 231130Z 03006KT 320V070 CAVOK 07/M05 Q1016 NOSIG
  • 231100Z 05005KT 340V110 9999 FEW043 06/M04 Q1017 NOSIG
  • 231030Z 06004KT 330V130 9999 FEW043 06/M05 Q1017 NOSIG
  • 231000Z 09006KT 040V140 9999 FEW040 05/M04 Q1017 NOSIG
  • 230930Z 02005KT 280V070 9999 FEW037 05/M04 Q1018 NOSIG
  • 230900Z 07008KT 020V100 9999 FEW034 05/M03 Q1018 NOSIG

TAF TAF LKPR
Valide du 23 à 12h jusqu'au 24 à 18h UTC


231100Z 2312/2418 01005KT 9999 SCT035
TEMPO 2312/2316 08007KT
BECMG 2401/2403 29005KT
TEMPO 2413/2418 28012KT -SHRA BKN025



MET'MAP, la Météo Aéronautique d'un coup d'oeil ! - Copyright ORBIFLY Décembre 2007 - Disclaimer

ORBIFLY MET'MAP TEAM :

Programmation & Développement : Alexandra Zaïnal
Sur une idée originale de : Baudouin d'Aumeries
Soutien technique & logistique : Manuel Goepfert
Assistance : Marc-Olivier Méhu




SOURCES & CREDITS :

   NOAA